createdAt,value
2022-09-18T00:00:04.058Z,6.90
2022-09-18T00:00:25.109Z,7.40
2022-09-18T00:00:46.266Z,8.40
2022-09-18T00:01:07.319Z,7.10
2022-09-18T00:01:28.415Z,9.30
2022-09-18T00:01:49.525Z,8.70
2022-09-18T00:02:10.631Z,8.50
2022-09-18T00:02:31.752Z,9.30
2022-09-18T00:02:52.875Z,7.00
2022-09-18T00:03:13.959Z,8.10
2022-09-18T00:03:34.996Z,7.20
2022-09-18T00:03:56.032Z,9.20
2022-09-18T00:04:17.113Z,6.40
2022-09-18T00:04:38.165Z,8.10
2022-09-18T00:04:59.218Z,6.00
2022-09-18T00:05:20.274Z,7.00
2022-09-18T00:05:41.316Z,7.70
2022-09-18T00:06:02.367Z,6.20
2022-09-18T00:06:23.434Z,7.40
2022-09-18T00:06:44.482Z,6.80
2022-09-18T00:07:05.541Z,7.20
2022-09-18T00:07:26.608Z,7.30
2022-09-18T00:07:47.652Z,6.90
2022-09-18T00:08:08.729Z,6.70
2022-09-18T00:08:29.778Z,8.30
2022-09-18T00:08:50.822Z,7.90
2022-09-18T00:09:11.871Z,6.80
2022-09-18T00:09:32.943Z,7.80
2022-09-18T00:09:53.992Z,7.50
2022-09-18T00:10:15.043Z,8.40
2022-09-18T00:10:36.118Z,9.50
2022-09-18T00:10:57.327Z,8.20
2022-09-18T00:11:18.490Z,9.50
2022-09-18T00:11:39.507Z,6.10
2022-09-18T00:12:00.557Z,4.20
2022-09-18T00:12:21.610Z,7.10
2022-09-18T00:12:42.720Z,7.40
2022-09-18T00:13:03.771Z,5.40
2022-09-18T00:13:24.831Z,5.80
2022-09-18T00:13:45.896Z,7.40
2022-09-18T00:14:06.961Z,8.80
2022-09-18T00:14:28.013Z,6.50
2022-09-18T00:14:49.062Z,7.10
2022-09-18T00:15:10.114Z,7.10
2022-09-18T00:15:31.157Z,7.30
2022-09-18T00:15:52.302Z,7.80
2022-09-18T00:16:13.402Z,9.00
2022-09-18T00:16:34.633Z,8.70
2022-09-18T00:16:55.713Z,7.70
2022-09-18T00:17:16.758Z,8.90
2022-09-18T00:17:37.818Z,7.80
2022-09-18T00:17:58.865Z,8.30
2022-09-18T00:18:19.912Z,7.50
2022-09-18T00:18:40.967Z,6.00
2022-09-18T00:19:02.027Z,7.60
2022-09-18T00:19:23.080Z,7.70
2022-09-18T00:19:44.139Z,6.60
2022-09-18T00:20:05.186Z,8.50
2022-09-18T00:20:26.239Z,9.10
2022-09-18T00:20:47.296Z,7.70
2022-09-18T00:21:08.382Z,7.00
2022-09-18T00:21:29.435Z,6.80
2022-09-18T00:21:50.478Z,7.00
2022-09-18T00:22:11.529Z,8.90
2022-09-18T00:22:32.588Z,7.60
2022-09-18T00:22:53.639Z,6.50
2022-09-18T00:23:14.704Z,7.40
2022-09-18T00:23:35.750Z,7.60
2022-09-18T00:23:56.803Z,8.80
2022-09-18T00:24:17.874Z,6.70
2022-09-18T00:24:38.931Z,7.40
2022-09-18T00:24:59.986Z,7.80
2022-09-18T00:25:21.045Z,7.00
2022-09-18T00:25:42.097Z,7.60
2022-09-18T00:26:03.152Z,7.90
2022-09-18T00:26:24.442Z,7.00
2022-09-18T00:26:45.433Z,7.40
2022-09-18T00:27:06.486Z,7.40
2022-09-18T00:27:27.554Z,6.20
2022-09-18T00:27:48.601Z,7.00
2022-09-18T00:28:09.661Z,6.70
2022-09-18T00:28:30.730Z,7.70
2022-09-18T00:28:51.797Z,8.60
2022-09-18T00:29:12.865Z,8.90
2022-09-18T00:29:33.912Z,7.40
2022-09-18T00:29:54.962Z,7.20
2022-09-18T00:30:16.009Z,7.20
2022-09-18T00:30:37.071Z,6.40
2022-09-18T00:30:58.170Z,7.40
2022-09-18T00:31:19.231Z,7.70
2022-09-18T00:31:40.535Z,8.00
2022-09-18T00:32:01.552Z,4.80
2022-09-18T00:32:22.613Z,7.00
2022-09-18T00:32:43.658Z,7.00
2022-09-18T00:33:04.711Z,9.00
2022-09-18T00:33:25.757Z,7.30
2022-09-18T00:33:46.867Z,8.20
2022-09-18T00:34:07.913Z,7.00
2022-09-18T00:34:28.968Z,5.50
2022-09-18T00:34:50.019Z,6.10
2022-09-18T00:35:11.073Z,6.60
2022-09-18T00:35:32.127Z,6.90
2022-09-18T00:35:53.206Z,7.50
2022-09-18T00:36:14.268Z,8.20
2022-09-18T00:36:35.333Z,8.90
2022-09-18T00:36:56.434Z,8.10
2022-09-18T00:37:17.484Z,6.80
2022-09-18T00:37:38.539Z,6.50
2022-09-18T00:37:59.592Z,6.60
2022-09-18T00:38:20.654Z,6.50
2022-09-18T00:38:41.726Z,7.30
2022-09-18T00:39:02.879Z,9.10
2022-09-18T00:39:23.921Z,6.20
2022-09-18T00:39:44.976Z,8.00
2022-09-18T00:40:06.063Z,5.50
2022-09-18T00:40:27.147Z,6.40
2022-09-18T00:40:48.183Z,6.90
2022-09-18T00:41:09.232Z,8.60
2022-09-18T00:41:30.401Z,6.80
2022-09-18T00:41:51.522Z,6.10
2022-09-18T00:42:12.572Z,6.90
2022-09-18T00:42:33.624Z,6.20
2022-09-18T00:42:54.689Z,7.90
2022-09-18T00:43:15.755Z,7.40
2022-09-18T00:43:36.803Z,8.60
2022-09-18T00:43:57.856Z,9.40
2022-09-18T00:44:18.915Z,7.50
2022-09-18T00:44:39.971Z,7.60
2022-09-18T00:45:01.025Z,7.30
2022-09-18T00:45:22.071Z,8.10
2022-09-18T00:45:43.121Z,6.40
2022-09-18T00:46:04.202Z,7.40
2022-09-18T00:46:25.352Z,8.90
2022-09-18T00:46:46.674Z,8.70
2022-09-18T00:47:07.701Z,6.10
2022-09-18T00:47:28.755Z,7.40
2022-09-18T00:47:49.802Z,8.40
2022-09-18T00:48:10.865Z,7.70
2022-09-18T00:48:31.908Z,7.30
2022-09-18T00:48:52.965Z,6.70
2022-09-18T00:49:14.028Z,7.70
2022-09-18T00:49:35.088Z,8.20
2022-09-18T00:49:56.131Z,8.00
2022-09-18T00:50:17.172Z,9.10
2022-09-18T00:50:38.220Z,9.90
2022-09-18T00:50:59.281Z,8.30
2022-09-18T00:51:20.335Z,7.90
2022-09-18T00:51:41.383Z,8.30
2022-09-18T00:52:02.547Z,8.00
2022-09-18T00:52:23.599Z,7.80
2022-09-18T00:52:44.653Z,6.70
2022-09-18T00:53:05.713Z,8.80
2022-09-18T00:53:26.759Z,8.00
2022-09-18T00:53:47.819Z,5.70
2022-09-18T00:54:08.868Z,6.80
2022-09-18T00:54:29.917Z,7.00
2022-09-18T00:54:50.966Z,7.70
2022-09-18T00:55:12.025Z,6.00
2022-09-18T00:55:33.075Z,8.50
2022-09-18T00:55:54.126Z,7.20
2022-09-18T00:56:15.173Z,5.70
2022-09-18T00:56:36.346Z,6.40
2022-09-18T00:56:57.339Z,5.80
2022-09-18T00:57:18.517Z,8.90
2022-09-18T00:57:39.565Z,6.70
2022-09-18T00:58:00.620Z,7.40
2022-09-18T00:58:21.670Z,7.20
2022-09-18T00:58:42.739Z,8.10
2022-09-18T00:59:03.793Z,8.00
2022-09-18T00:59:24.846Z,6.40
2022-09-18T00:59:45.910Z,5.10
2022-09-18T01:00:06.962Z,5.30
2022-09-18T01:00:28.007Z,5.90
2022-09-18T01:00:49.144Z,5.70
2022-09-18T01:01:10.254Z,6.80
2022-09-18T01:01:31.384Z,8.20
2022-09-18T01:01:52.528Z,9.10
2022-09-18T01:02:13.678Z,10.50
2022-09-18T01:02:34.754Z,7.40
2022-09-18T01:02:55.820Z,6.60
2022-09-18T01:03:16.914Z,7.20
2022-09-18T01:03:37.926Z,7.80
2022-09-18T01:03:58.986Z,5.60
2022-09-18T01:04:20.037Z,9.00
2022-09-18T01:04:41.094Z,5.60
2022-09-18T01:05:02.139Z,5.70
2022-09-18T01:05:23.188Z,6.90
2022-09-18T01:05:44.251Z,7.40
2022-09-18T01:06:05.299Z,6.90
2022-09-18T01:06:26.352Z,6.00
2022-09-18T01:06:47.407Z,7.00
2022-09-18T01:07:08.450Z,7.30
2022-09-18T01:07:29.612Z,7.90
2022-09-18T01:07:50.669Z,6.80
2022-09-18T01:08:11.721Z,7.20
2022-09-18T01:08:32.773Z,6.80
2022-09-18T01:08:53.826Z,5.80
2022-09-18T01:09:27.721Z,7.10
2022-09-18T01:09:41.840Z,5.70
2022-09-18T01:10:02.888Z,5.70
2022-09-18T01:10:23.969Z,6.60
2022-09-18T01:10:44.991Z,9.00
2022-09-18T01:11:06.043Z,7.50
2022-09-18T01:11:27.098Z,6.50
2022-09-18T01:11:48.268Z,7.50
2022-09-18T01:12:09.265Z,7.30
2022-09-18T01:12:30.331Z,6.00
2022-09-18T01:12:51.382Z,6.70
2022-09-18T01:13:12.437Z,7.00
2022-09-18T01:13:33.483Z,6.40
2022-09-18T01:13:54.555Z,5.50
2022-09-18T01:14:15.639Z,5.90
2022-09-18T01:14:36.708Z,6.20
2022-09-18T01:14:57.776Z,5.50
2022-09-18T01:15:18.838Z,6.10
2022-09-18T01:15:39.960Z,5.60
2022-09-18T01:16:01.101Z,6.70
2022-09-18T01:16:22.180Z,7.90
2022-09-18T01:16:43.212Z,6.20
2022-09-18T01:17:04.266Z,7.20
2022-09-18T01:17:25.316Z,7.10
2022-09-18T01:17:46.415Z,6.40
2022-09-18T01:18:07.473Z,7.00
2022-09-18T01:18:28.524Z,7.30
2022-09-18T01:18:49.574Z,8.70
2022-09-18T01:19:10.619Z,7.70
2022-09-18T01:19:31.675Z,7.80
2022-09-18T01:19:52.723Z,7.20
2022-09-18T01:20:13.772Z,7.60
2022-09-18T01:20:34.829Z,8.20
2022-09-18T01:20:55.880Z,8.40
2022-09-18T01:21:16.941Z,5.70
2022-09-18T01:21:38.026Z,7.90
2022-09-18T01:21:59.106Z,7.40
2022-09-18T01:22:20.184Z,6.60
2022-09-18T01:22:41.310Z,6.70
2022-09-18T01:23:02.372Z,5.20
2022-09-18T01:23:23.417Z,7.50
2022-09-18T01:23:44.467Z,6.70
2022-09-18T01:24:05.596Z,5.60
2022-09-18T01:24:26.646Z,6.80
2022-09-18T01:24:47.688Z,4.90
2022-09-18T01:25:08.741Z,6.00
2022-09-18T01:25:29.811Z,8.30
2022-09-18T01:25:50.861Z,7.60
2022-09-18T01:26:11.914Z,8.20
2022-09-18T01:26:32.970Z,5.40
2022-09-18T01:26:54.143Z,7.00
2022-09-18T01:27:15.163Z,7.10
2022-09-18T01:27:36.205Z,5.60
2022-09-18T01:27:57.371Z,6.90
2022-09-18T01:28:18.425Z,7.80
2022-09-18T01:28:39.475Z,7.10
2022-09-18T01:29:00.523Z,6.50
2022-09-18T01:29:21.572Z,7.80
2022-09-18T01:29:42.632Z,8.00
2022-09-18T01:30:03.691Z,6.00
2022-09-18T01:30:24.763Z,7.90
2022-09-18T01:30:45.867Z,7.60
2022-09-18T01:31:06.996Z,7.60
2022-09-18T01:31:28.237Z,7.10
2022-09-18T01:31:49.366Z,7.50
2022-09-18T01:32:10.441Z,7.60
2022-09-18T01:32:31.554Z,6.30
2022-09-18T01:32:52.636Z,7.00
2022-09-18T01:33:13.705Z,7.30
2022-09-18T01:33:34.752Z,6.10
2022-09-18T01:33:55.801Z,6.30
2022-09-18T01:34:16.883Z,7.10
2022-09-18T01:34:37.927Z,5.30
2022-09-18T01:34:58.982Z,5.20
2022-09-18T01:35:39.936Z,6.60
2022-09-18T01:35:46.993Z,6.80
2022-09-18T01:36:08.041Z,6.80
2022-09-18T01:36:29.092Z,7.90
2022-09-18T01:36:50.147Z,7.60
2022-09-18T01:37:11.209Z,9.10
2022-09-18T01:37:32.299Z,9.30
2022-09-18T01:37:53.340Z,8.20
2022-09-18T01:38:14.625Z,6.10
2022-09-18T01:38:35.630Z,5.70
2022-09-18T01:38:56.690Z,6.30
2022-09-18T01:39:17.739Z,8.20
2022-09-18T01:39:38.791Z,6.90
2022-09-18T01:39:59.882Z,6.00
2022-09-18T01:40:20.908Z,7.00
2022-09-18T01:40:41.955Z,7.00
2022-09-18T01:41:03.008Z,7.30
2022-09-18T01:41:24.132Z,7.80
2022-09-18T01:41:45.206Z,5.40
2022-09-18T01:42:06.402Z,6.80
2022-09-18T01:42:27.542Z,6.80
2022-09-18T01:42:48.609Z,7.90
2022-09-18T01:43:09.693Z,8.80
2022-09-18T01:43:30.898Z,6.50
2022-09-18T01:43:51.935Z,7.10
2022-09-18T01:44:12.988Z,5.70
2022-09-18T01:44:34.036Z,6.80
2022-09-18T01:44:55.090Z,8.40
2022-09-18T01:45:16.164Z,6.20
2022-09-18T01:45:37.198Z,5.00
2022-09-18T01:45:58.253Z,4.40
2022-09-18T01:46:19.398Z,4.80
2022-09-18T01:46:40.462Z,6.40
2022-09-18T01:47:01.544Z,5.30
2022-09-18T01:47:22.590Z,4.50
2022-09-18T01:47:43.763Z,5.40
2022-09-18T01:48:04.808Z,5.10
2022-09-18T01:48:25.856Z,7.00
2022-09-18T01:48:47.020Z,5.90
2022-09-18T01:49:08.102Z,6.00
2022-09-18T01:49:29.142Z,6.50
2022-09-18T01:49:50.195Z,5.70
2022-09-18T01:50:11.243Z,4.50
2022-09-18T01:50:32.302Z,6.60
2022-09-18T01:50:53.358Z,7.60
2022-09-18T01:51:14.407Z,6.70
2022-09-18T01:51:35.452Z,5.80
2022-09-18T01:51:56.505Z,5.90
2022-09-18T01:52:17.561Z,7.20
2022-09-18T01:52:38.614Z,5.60
2022-09-18T01:52:59.664Z,6.20
2022-09-18T01:53:20.787Z,6.70
2022-09-18T01:53:41.874Z,4.80
2022-09-18T01:54:02.988Z,5.70
2022-09-18T01:54:24.207Z,4.60
2022-09-18T01:54:45.258Z,6.00
2022-09-18T01:55:06.316Z,7.10
2022-09-18T01:55:27.371Z,4.80
2022-09-18T01:55:48.416Z,4.70
2022-09-18T01:56:09.497Z,5.80
2022-09-18T01:56:30.578Z,5.00
2022-09-18T01:56:51.627Z,7.20
2022-09-18T01:57:12.807Z,6.60
2022-09-18T01:57:33.799Z,4.90
2022-09-18T01:57:54.846Z,5.50
2022-09-18T01:58:15.908Z,4.60
2022-09-18T01:58:36.968Z,4.80
2022-09-18T01:58:58.024Z,7.00
2022-09-18T01:59:19.156Z,7.30
2022-09-18T01:59:40.240Z,7.90
2022-09-18T02:00:01.335Z,5.70
2022-09-18T02:00:22.397Z,6.50
2022-09-18T02:00:43.445Z,5.50
2022-09-18T02:01:04.496Z,5.30
2022-09-18T02:01:25.598Z,6.80
2022-09-18T02:01:46.781Z,7.10
2022-09-18T02:02:07.926Z,6.30
2022-09-18T02:02:29.110Z,5.20
2022-09-18T02:02:50.327Z,6.00
2022-09-18T02:03:11.423Z,5.40
2022-09-18T02:03:32.472Z,5.80
2022-09-18T02:03:53.523Z,4.70
2022-09-18T02:04:14.584Z,4.40
2022-09-18T02:04:35.634Z,5.30
2022-09-18T02:04:56.683Z,4.40
2022-09-18T02:05:17.738Z,4.70
2022-09-18T02:05:38.805Z,8.30
2022-09-18T02:05:59.918Z,5.60
2022-09-18T02:06:20.926Z,5.40
2022-09-18T02:06:41.978Z,5.40
2022-09-18T02:07:03.026Z,5.20
2022-09-18T02:07:24.078Z,5.70
2022-09-18T02:07:45.123Z,4.20
2022-09-18T02:08:06.176Z,4.60
2022-09-18T02:08:27.337Z,8.20
2022-09-18T02:08:48.396Z,6.80
2022-09-18T02:09:09.448Z,6.90
2022-09-18T02:09:30.510Z,5.40
2022-09-18T02:09:51.560Z,4.90
2022-09-18T02:10:12.613Z,5.60
2022-09-18T02:10:33.671Z,6.40
2022-09-18T02:10:54.713Z,6.90
2022-09-18T02:11:15.778Z,5.30
2022-09-18T02:11:36.847Z,4.50
2022-09-18T02:11:57.902Z,7.10
2022-09-18T02:12:19.072Z,6.80
2022-09-18T02:12:40.062Z,5.10
2022-09-18T02:13:01.115Z,4.80
2022-09-18T02:13:22.176Z,7.60
2022-09-18T02:13:43.223Z,6.40
2022-09-18T02:14:04.295Z,5.20
2022-09-18T02:14:25.346Z,5.90
2022-09-18T02:14:46.390Z,4.90
2022-09-18T02:15:07.481Z,7.10
2022-09-18T02:15:28.544Z,6.80
2022-09-18T02:15:49.646Z,5.00
2022-09-18T02:16:10.750Z,6.10
2022-09-18T02:16:31.842Z,5.40
2022-09-18T02:16:52.882Z,5.50
2022-09-18T02:17:13.929Z,5.00
2022-09-18T02:17:34.986Z,5.50
2022-09-18T02:17:56.072Z,6.10
2022-09-18T02:18:17.125Z,6.00
2022-09-18T02:18:38.226Z,6.60
2022-09-18T02:18:59.394Z,6.70
2022-09-18T02:19:20.453Z,5.60
2022-09-18T02:19:41.499Z,5.70
2022-09-18T02:20:02.549Z,6.40
2022-09-18T02:20:23.601Z,6.90
2022-09-18T02:20:44.662Z,6.30
2022-09-18T02:21:05.712Z,5.20
2022-09-18T02:21:26.755Z,5.20
2022-09-18T02:21:47.809Z,6.60
2022-09-18T02:22:08.874Z,6.50
2022-09-18T02:22:29.914Z,5.10
2022-09-18T02:22:50.967Z,6.00
2022-09-18T02:23:12.051Z,6.10
2022-09-18T02:23:33.278Z,6.00
2022-09-18T02:23:54.424Z,5.30
2022-09-18T02:24:15.493Z,6.20
2022-09-18T02:24:36.544Z,4.50
2022-09-18T02:24:57.589Z,6.80
2022-09-18T02:25:18.655Z,5.10
2022-09-18T02:25:39.699Z,5.70
2022-09-18T02:26:00.751Z,5.80
2022-09-18T02:26:21.801Z,7.30
2022-09-18T02:26:42.882Z,5.20
2022-09-18T02:27:03.934Z,4.80
2022-09-18T02:27:25.102Z,5.10
2022-09-18T02:27:46.096Z,6.10
2022-09-18T02:28:07.143Z,6.10
2022-09-18T02:28:28.252Z,5.00
2022-09-18T02:28:50.299Z,5.30
2022-09-18T02:29:11.356Z,6.50
2022-09-18T02:29:32.429Z,7.50
2022-09-18T02:29:53.520Z,6.70
2022-09-18T02:30:14.605Z,6.00
2022-09-18T02:30:35.660Z,5.60
2022-09-18T02:30:56.738Z,5.40
2022-09-18T02:31:17.907Z,4.00
2022-09-18T02:31:39.014Z,5.60
2022-09-18T02:32:00.035Z,6.10
2022-09-18T02:32:21.089Z,6.20
2022-09-18T02:32:42.143Z,7.10
2022-09-18T02:33:03.192Z,7.00
2022-09-18T02:33:24.287Z,5.90
2022-09-18T02:33:45.332Z,4.80
2022-09-18T02:34:06.384Z,6.00
2022-09-18T02:34:27.436Z,4.80
2022-09-18T02:34:48.552Z,4.90
2022-09-18T02:35:09.608Z,6.00
2022-09-18T02:35:30.669Z,6.10
2022-09-18T02:35:51.716Z,5.90
2022-09-18T02:36:12.774Z,4.50
2022-09-18T02:36:33.821Z,4.50
2022-09-18T02:36:54.875Z,4.50
2022-09-18T02:37:15.925Z,5.40
2022-09-18T02:37:36.979Z,5.50
2022-09-18T02:37:58.040Z,7.00
2022-09-18T02:38:19.089Z,5.70
2022-09-18T02:38:40.138Z,5.20
2022-09-18T02:39:01.243Z,6.60
2022-09-18T02:39:22.266Z,6.50
2022-09-18T02:39:43.318Z,7.20
2022-09-18T02:40:04.423Z,5.40
2022-09-18T02:40:25.531Z,4.60
2022-09-18T02:40:46.590Z,5.60
2022-09-18T02:41:07.648Z,7.00
2022-09-18T02:41:28.700Z,7.40
2022-09-18T02:41:49.761Z,6.40
2022-09-18T02:42:10.812Z,7.30
2022-09-18T02:42:31.988Z,5.60
2022-09-18T02:42:52.978Z,6.60
2022-09-18T02:43:14.088Z,7.60
2022-09-18T02:43:35.129Z,6.30
2022-09-18T02:43:56.183Z,5.50
2022-09-18T02:44:17.235Z,5.30
2022-09-18T02:44:38.291Z,5.10
2022-09-18T02:44:59.336Z,3.80
2022-09-18T02:45:20.565Z,5.40
2022-09-18T02:45:41.609Z,4.90
2022-09-18T02:46:02.703Z,5.90
2022-09-18T02:46:23.795Z,6.30
2022-09-18T02:46:44.967Z,5.80
2022-09-18T02:47:06.005Z,7.90
2022-09-18T02:47:27.065Z,7.80
2022-09-18T02:47:48.124Z,7.60
2022-09-18T02:48:09.178Z,7.00
2022-09-18T02:48:30.233Z,7.40
2022-09-18T02:48:51.372Z,6.60
2022-09-18T02:49:12.441Z,5.30
2022-09-18T02:49:33.508Z,4.20
2022-09-18T02:49:54.622Z,4.70
2022-09-18T02:50:15.691Z,4.20
2022-09-18T02:50:36.799Z,5.00
2022-09-18T02:50:57.855Z,5.70
2022-09-18T02:51:18.906Z,6.30
2022-09-18T02:51:39.967Z,5.40
2022-09-18T02:52:01.062Z,6.40
2022-09-18T02:52:22.110Z,7.90
2022-09-18T02:52:43.157Z,6.40
2022-09-18T02:53:04.206Z,6.00
2022-09-18T02:53:25.255Z,5.20
2022-09-18T02:53:46.305Z,5.80
2022-09-18T02:54:07.406Z,6.20
2022-09-18T02:54:28.462Z,5.10
2022-09-18T02:54:49.531Z,5.30
2022-09-18T02:55:10.587Z,5.50
2022-09-18T02:55:31.638Z,7.40
2022-09-18T02:55:52.801Z,6.90
2022-09-18T02:56:13.851Z,6.90
2022-09-18T02:56:34.911Z,6.20
2022-09-18T02:56:55.965Z,4.10
2022-09-18T02:57:17.019Z,3.40
2022-09-18T02:57:38.184Z,4.10
2022-09-18T02:57:59.176Z,4.90
2022-09-18T02:58:20.226Z,4.80
2022-09-18T02:58:41.274Z,5.30
2022-09-18T02:59:02.324Z,5.50
2022-09-18T02:59:23.378Z,4.90
2022-09-18T02:59:44.448Z,5.10
2022-09-18T03:00:05.543Z,6.30
2022-09-18T03:00:26.596Z,6.40
2022-09-18T03:00:47.647Z,4.10
2022-09-18T03:01:08.700Z,5.90
2022-09-18T03:01:29.759Z,5.40
2022-09-18T03:01:50.927Z,5.20
2022-09-18T03:02:12.136Z,4.00
2022-09-18T03:02:33.235Z,6.30
2022-09-18T03:02:54.321Z,5.50
2022-09-18T03:03:15.396Z,6.20
2022-09-18T03:03:36.471Z,5.70
2022-09-18T03:03:57.522Z,6.30
2022-09-18T03:04:18.570Z,8.50
2022-09-18T03:04:39.619Z,7.70
2022-09-18T03:05:00.680Z,7.20
2022-09-18T03:05:21.731Z,6.20
2022-09-18T03:05:42.794Z,5.60
2022-09-18T03:06:03.839Z,6.10
2022-09-18T03:06:24.898Z,6.50
2022-09-18T03:06:45.963Z,7.00
2022-09-18T03:07:07.020Z,6.60
2022-09-18T03:07:28.078Z,6.00
2022-09-18T03:07:49.134Z,5.70
2022-09-18T03:08:10.189Z,5.70
2022-09-18T03:08:31.258Z,6.20
2022-09-18T03:08:52.297Z,4.40
2022-09-18T03:09:13.349Z,4.70
2022-09-18T03:09:34.401Z,5.50
2022-09-18T03:09:55.465Z,6.60
2022-09-18T03:10:16.525Z,4.60
2022-09-18T03:10:37.577Z,6.30
2022-09-18T03:10:58.625Z,5.00
2022-09-18T03:11:19.679Z,4.90
2022-09-18T03:11:40.736Z,4.20
2022-09-18T03:12:01.795Z,4.30
2022-09-18T03:12:22.832Z,4.30
2022-09-18T03:12:44.002Z,4.60
2022-09-18T03:13:04.995Z,5.90
2022-09-18T03:13:26.095Z,6.60
2022-09-18T03:13:47.154Z,6.00
2022-09-18T03:14:08.201Z,5.50
2022-09-18T03:14:29.258Z,6.10
2022-09-18T03:14:50.306Z,5.20
2022-09-18T03:15:11.387Z,6.30
2022-09-18T03:15:32.435Z,7.10
2022-09-18T03:15:53.523Z,6.10
2022-09-18T03:16:14.610Z,7.10
2022-09-18T03:16:35.849Z,5.50
2022-09-18T03:16:56.898Z,5.80
2022-09-18T03:17:17.976Z,6.20
2022-09-18T03:17:39.025Z,6.80
2022-09-18T03:18:00.087Z,5.20
2022-09-18T03:18:21.133Z,5.50
2022-09-18T03:18:42.179Z,5.20
2022-09-18T03:19:03.232Z,4.60
2022-09-18T03:19:24.295Z,4.20
2022-09-18T03:19:45.353Z,4.60
2022-09-18T03:20:06.408Z,5.20
2022-09-18T03:20:27.489Z,5.50
2022-09-18T03:20:48.540Z,6.40
2022-09-18T03:21:09.603Z,6.80
2022-09-18T03:21:30.737Z,6.30
2022-09-18T03:21:51.754Z,6.90
2022-09-18T03:22:12.801Z,7.20
2022-09-18T03:22:33.853Z,5.40
2022-09-18T03:22:54.905Z,4.70
2022-09-18T03:23:15.953Z,4.80
2022-09-18T03:23:37.001Z,5.60
2022-09-18T03:23:58.058Z,5.00
2022-09-18T03:24:19.105Z,4.50
2022-09-18T03:24:40.150Z,5.80
2022-09-18T03:25:01.203Z,5.40
2022-09-18T03:25:22.268Z,5.70
2022-09-18T03:25:43.339Z,5.60
2022-09-18T03:26:04.388Z,4.70
2022-09-18T03:26:25.442Z,3.80
2022-09-18T03:26:46.490Z,4.50
2022-09-18T03:27:07.543Z,4.80
2022-09-18T03:27:28.586Z,6.50
2022-09-18T03:27:49.758Z,7.20
2022-09-18T03:28:10.746Z,5.00
2022-09-18T03:28:31.797Z,4.20
2022-09-18T03:28:52.845Z,6.90
2022-09-18T03:29:13.910Z,6.00
2022-09-18T03:29:34.962Z,5.60
2022-09-18T03:29:56.008Z,5.70
2022-09-18T03:30:17.060Z,6.50
2022-09-18T03:30:38.106Z,5.40
2022-09-18T03:30:59.246Z,4.30
2022-09-18T03:31:20.297Z,4.50
2022-09-18T03:31:41.401Z,5.90
2022-09-18T03:32:02.495Z,7.20
2022-09-18T03:32:23.545Z,5.30
2022-09-18T03:32:44.596Z,7.50
2022-09-18T03:33:05.655Z,5.70
2022-09-18T03:33:26.708Z,6.00
2022-09-18T03:33:47.903Z,5.10
2022-09-18T03:34:08.933Z,5.40
2022-09-18T03:34:29.989Z,5.40
2022-09-18T03:34:51.036Z,6.10
2022-09-18T03:35:12.081Z,5.70
2022-09-18T03:35:33.150Z,4.30
2022-09-18T03:35:54.183Z,4.00
2022-09-18T03:36:15.261Z,5.60
2022-09-18T03:36:36.304Z,5.30
2022-09-18T03:36:57.349Z,5.20
2022-09-18T03:37:18.403Z,6.50
2022-09-18T03:37:39.481Z,5.10
2022-09-18T03:38:00.579Z,4.50
2022-09-18T03:38:21.635Z,5.20
2022-09-18T03:38:42.681Z,5.20
2022-09-18T03:39:03.732Z,4.80
2022-09-18T03:39:24.782Z,4.40
2022-09-18T03:39:45.885Z,5.20
2022-09-18T03:40:07.020Z,4.20
2022-09-18T03:40:28.134Z,5.40
2022-09-18T03:40:49.273Z,6.00
2022-09-18T03:41:10.369Z,4.70
2022-09-18T03:41:31.411Z,5.80
2022-09-18T03:41:52.461Z,4.70
2022-09-18T03:42:13.634Z,6.70
2022-09-18T03:42:34.684Z,5.50
2022-09-18T03:42:55.861Z,6.10
2022-09-18T03:43:16.862Z,4.60
2022-09-18T03:43:37.907Z,5.30
2022-09-18T03:43:58.959Z,5.60
2022-09-18T03:44:20.010Z,5.10
2022-09-18T03:44:41.064Z,5.40
2022-09-18T03:45:02.115Z,4.80
2022-09-18T03:45:23.168Z,6.10
2022-09-18T03:45:44.246Z,5.40
2022-09-18T03:46:05.407Z,5.90
2022-09-18T03:46:26.494Z,4.20
2022-09-18T03:46:47.674Z,4.30
2022-09-18T03:47:08.771Z,3.30
2022-09-18T03:47:33.064Z,4.90
2022-09-18T03:47:56.804Z,5.50
2022-09-18T03:48:17.861Z,4.80
2022-09-18T03:48:38.902Z,4.70
2022-09-18T03:48:59.949Z,4.00
2022-09-18T03:49:21.011Z,5.00
2022-09-18T03:49:42.091Z,5.60
2022-09-18T03:50:03.148Z,4.70
2022-09-18T03:50:24.196Z,5.20
2022-09-18T03:50:45.272Z,4.70
2022-09-18T03:51:06.324Z,4.50
2022-09-18T03:51:27.379Z,5.20
2022-09-18T03:51:48.428Z,5.30
2022-09-18T03:52:09.494Z,4.70
2022-09-18T03:52:30.561Z,5.40
2022-09-18T03:52:51.835Z,7.00
2022-09-18T03:53:12.874Z,5.40
2022-09-18T03:53:33.930Z,6.00
2022-09-18T03:53:54.998Z,4.50
2022-09-18T03:54:16.060Z,5.90
2022-09-18T03:54:37.107Z,4.90
2022-09-18T03:54:58.149Z,3.90
2022-09-18T03:55:19.199Z,5.70
2022-09-18T03:55:40.247Z,5.30
2022-09-18T03:56:01.300Z,4.00
2022-09-18T03:56:22.354Z,3.60
2022-09-18T03:56:43.412Z,5.90
2022-09-18T03:57:04.469Z,6.00
2022-09-18T03:57:25.532Z,6.20
2022-09-18T03:57:46.746Z,4.90
2022-09-18T03:58:07.914Z,4.60
2022-09-18T03:58:28.903Z,4.60
2022-09-18T03:58:49.957Z,5.60
2022-09-18T03:59:11.018Z,4.90
2022-09-18T03:59:32.073Z,4.50
2022-09-18T03:59:53.148Z,4.10
2022-09-18T04:00:14.194Z,4.60
2022-09-18T04:00:35.254Z,5.60
2022-09-18T04:00:56.328Z,5.40
2022-09-18T04:01:17.382Z,4.90
2022-09-18T04:01:38.482Z,5.00
2022-09-18T04:01:59.610Z,3.30
2022-09-18T04:02:20.693Z,3.30
2022-09-18T04:02:41.825Z,4.50
2022-09-18T04:03:03.042Z,5.20
2022-09-18T04:03:24.083Z,5.30
2022-09-18T04:03:45.149Z,4.10
2022-09-18T04:04:06.208Z,4.20
2022-09-18T04:04:27.260Z,3.30
2022-09-18T04:04:48.312Z,4.30
2022-09-18T04:05:09.361Z,3.80
2022-09-18T04:05:30.412Z,4.10
2022-09-18T04:05:51.462Z,6.70
2022-09-18T04:06:12.511Z,4.90
2022-09-18T04:06:33.562Z,5.10
2022-09-18T04:06:54.616Z,5.50
2022-09-18T04:07:15.667Z,5.40
2022-09-18T04:07:36.715Z,4.50
2022-09-18T04:07:57.765Z,4.80
2022-09-18T04:08:18.943Z,4.50
2022-09-18T04:08:40.005Z,4.60
2022-09-18T04:09:01.061Z,5.70
2022-09-18T04:09:22.113Z,6.10
2022-09-18T04:09:43.169Z,4.90
2022-09-18T04:10:04.222Z,4.70
2022-09-18T04:10:25.283Z,7.10
2022-09-18T04:10:46.318Z,6.90
2022-09-18T04:11:07.516Z,5.90
2022-09-18T04:11:28.565Z,4.30
2022-09-18T04:11:49.608Z,3.00
2022-09-18T04:12:10.660Z,4.30
2022-09-18T04:12:31.714Z,3.70
2022-09-18T04:12:52.765Z,3.80
2022-09-18T04:13:13.929Z,3.60
2022-09-18T04:13:34.939Z,3.90
2022-09-18T04:13:55.995Z,4.40
2022-09-18T04:14:17.067Z,5.60
2022-09-18T04:14:38.120Z,3.90
2022-09-18T04:14:59.161Z,4.00
2022-09-18T04:15:20.219Z,4.30
2022-09-18T04:15:41.322Z,3.00
2022-09-18T04:16:02.384Z,3.70
2022-09-18T04:16:23.584Z,4.20
2022-09-18T04:16:44.607Z,5.10
2022-09-18T04:17:05.653Z,4.70
2022-09-18T04:17:26.771Z,3.90
2022-09-18T04:17:47.836Z,4.90
2022-09-18T04:18:08.937Z,5.80
2022-09-18T04:18:29.997Z,6.40
2022-09-18T04:18:51.105Z,5.30
2022-09-18T04:19:12.304Z,6.60
2022-09-18T04:19:33.354Z,6.00
2022-09-18T04:19:54.420Z,5.40
2022-09-18T04:20:15.472Z,6.10
2022-09-18T04:20:36.516Z,6.40
2022-09-18T04:20:57.572Z,5.20
2022-09-18T04:21:18.617Z,5.50
2022-09-18T04:21:39.669Z,5.70
2022-09-18T04:22:00.736Z,6.60
2022-09-18T04:22:21.789Z,5.80
2022-09-18T04:22:42.836Z,4.60
2022-09-18T04:23:03.884Z,4.30
2022-09-18T04:23:24.948Z,5.90
2022-09-18T04:23:46.029Z,7.90
2022-09-18T04:24:07.114Z,6.20
2022-09-18T04:24:28.183Z,6.50
2022-09-18T04:24:49.236Z,5.70
2022-09-18T04:25:10.289Z,6.40
2022-09-18T04:25:31.337Z,8.70
2022-09-18T04:25:52.393Z,9.40
2022-09-18T04:26:13.466Z,7.70
2022-09-18T04:26:34.517Z,8.20
2022-09-18T04:26:55.602Z,8.70
2022-09-18T04:27:16.636Z,8.70
2022-09-18T04:27:37.690Z,7.50
2022-09-18T04:27:58.754Z,6.20
2022-09-18T04:28:19.933Z,6.20
2022-09-18T04:28:40.935Z,5.80
2022-09-18T04:29:01.988Z,7.90
2022-09-18T04:29:23.038Z,8.10
2022-09-18T04:29:44.093Z,5.00
2022-09-18T04:30:05.150Z,6.00
2022-09-18T04:30:26.196Z,6.60
2022-09-18T04:30:47.255Z,5.70
2022-09-18T04:31:08.368Z,6.10
2022-09-18T04:31:29.472Z,5.30
2022-09-18T04:31:50.547Z,5.00
2022-09-18T04:32:11.582Z,3.40
2022-09-18T04:32:32.681Z,4.70
2022-09-18T04:32:53.697Z,4.20
2022-09-18T04:33:16.112Z,5.60
2022-09-18T04:33:37.215Z,7.00
2022-09-18T04:33:58.275Z,6.50
2022-09-18T04:34:19.324Z,6.10
2022-09-18T04:34:40.480Z,7.10
2022-09-18T04:35:01.544Z,5.60
2022-09-18T04:35:22.590Z,5.20
2022-09-18T04:35:43.648Z,5.40
2022-09-18T04:36:04.706Z,5.60
2022-09-18T04:36:25.791Z,4.60
2022-09-18T04:36:46.841Z,5.50
2022-09-18T04:37:10.387Z,7.80
2022-09-18T04:37:31.667Z,6.60
2022-09-18T04:37:52.719Z,7.30
2022-09-18T04:38:13.770Z,5.00
2022-09-18T04:38:34.815Z,5.10
2022-09-18T04:38:55.869Z,3.90
2022-09-18T04:39:16.927Z,5.10
2022-09-18T04:39:37.972Z,6.20
2022-09-18T04:39:59.084Z,5.80
2022-09-18T04:40:20.241Z,4.10
2022-09-18T04:40:41.332Z,4.80